createdAt,value
2018-01-27T00:01:18.696Z,34.83
2018-01-27T00:03:46.208Z,30.70
2018-01-27T00:06:13.749Z,30.33
2018-01-27T00:08:41.267Z,32.07
2018-01-27T00:11:08.815Z,31.60
2018-01-27T00:13:36.322Z,31.63
2018-01-27T00:16:03.855Z,31.10
2018-01-27T00:18:31.363Z,33.03
2018-01-27T00:20:58.899Z,34.23
2018-01-27T00:23:26.408Z,33.03
2018-01-27T00:25:54.663Z,32.20
2018-01-27T00:28:22.211Z,30.80
2018-01-27T00:30:49.704Z,28.83
2018-01-27T00:33:17.208Z,28.03
2018-01-27T00:35:44.748Z,33.10
2018-01-27T00:38:12.261Z,34.90
2018-01-27T00:40:40.568Z,32.72
2018-01-27T00:43:08.071Z,33.10
2018-01-27T00:45:35.589Z,31.07
2018-01-27T00:48:03.135Z,29.35
2018-01-27T00:50:30.671Z,31.42
2018-01-27T00:52:58.236Z,32.95
2018-01-27T00:55:26.528Z,32.80
2018-01-27T00:57:54.048Z,31.17
2018-01-27T01:00:21.595Z,37.97
2018-01-27T01:02:49.124Z,41.47
2018-01-27T01:05:17.440Z,51.13
2018-01-27T01:07:44.975Z,49.10
2018-01-27T01:10:12.490Z,46.50
2018-01-27T01:12:40.016Z,41.73
2018-01-27T01:15:07.514Z,43.70
2018-01-27T01:17:35.028Z,48.00
2018-01-27T01:20:03.492Z,41.20
2018-01-27T01:22:30.992Z,49.07
2018-01-27T01:24:59.276Z,58.23
2018-01-27T01:27:27.569Z,55.37
2018-01-27T01:29:55.171Z,54.53
2018-01-27T01:32:22.701Z,56.30
2018-01-27T01:34:50.196Z,54.83
2018-01-27T01:37:17.723Z,61.07
2018-01-27T01:39:45.231Z,54.67
2018-01-27T01:42:19.212Z,56.93
2018-01-27T01:44:46.736Z,49.70
2018-01-27T01:47:14.244Z,48.20
2018-01-27T01:49:41.799Z,55.78
2018-01-27T01:52:09.327Z,52.47
2018-01-27T01:54:36.828Z,60.33
2018-01-27T01:57:04.377Z,55.80
2018-01-27T01:59:31.884Z,56.60
2018-01-27T02:01:59.414Z,56.13
2018-01-27T02:04:27.674Z,58.30
2018-01-27T02:06:55.224Z,58.20
2018-01-27T02:09:22.714Z,54.43
2018-01-27T02:11:50.985Z,48.27
2018-01-27T02:14:19.307Z,47.50
2018-01-27T02:16:46.843Z,52.80
2018-01-27T02:19:14.366Z,45.80
2018-01-27T02:21:41.874Z,46.63
2018-01-27T02:24:09.427Z,58.53
2018-01-27T02:26:36.947Z,56.67
2018-01-27T02:29:05.244Z,52.03
2018-01-27T02:31:32.757Z,47.80
2018-01-27T02:34:00.266Z,46.37
2018-01-27T02:36:27.803Z,46.27
2018-01-27T02:38:56.098Z,43.40
2018-01-27T02:41:24.404Z,41.60
2018-01-27T02:43:51.932Z,42.30
2018-01-27T02:46:19.435Z,45.07
2018-01-27T02:48:46.959Z,41.40
2018-01-27T02:51:14.459Z,45.37
2018-01-27T02:53:41.987Z,46.73
2018-01-27T02:56:09.499Z,49.07
2018-01-27T02:58:37.022Z,46.40
2018-01-27T03:01:04.534Z,37.57
2018-01-27T03:03:32.828Z,40.97
2018-01-27T03:06:00.363Z,35.60
2018-01-27T03:08:28.643Z,38.13
2018-01-27T03:10:56.916Z,39.37
2018-01-27T03:13:25.207Z,37.97
2018-01-27T03:15:52.713Z,40.63
2018-01-27T03:18:20.239Z,36.30
2018-01-27T03:20:47.744Z,35.10
2018-01-27T03:23:15.279Z,34.47
2018-01-27T03:25:42.781Z,32.90
2018-01-27T03:28:11.056Z,44.23
2018-01-27T03:30:39.346Z,41.03
2018-01-27T03:33:07.681Z,35.83
2018-01-27T03:35:35.198Z,37.30
2018-01-27T03:38:02.731Z,34.20
2018-01-27T03:40:31.024Z,35.40
2018-01-27T03:42:58.541Z,34.87
2018-01-27T03:45:26.067Z,39.67
2018-01-27T03:47:53.570Z,33.87
2018-01-27T03:50:21.082Z,35.50
2018-01-27T03:52:48.594Z,31.60
2018-01-27T03:55:16.898Z,33.00
2018-01-27T03:57:44.432Z,32.97
2018-01-27T04:00:12.728Z,37.50
2018-01-27T04:02:40.220Z,43.37
2018-01-27T04:05:07.743Z,33.67
2018-01-27T04:07:35.246Z,37.17
2018-01-27T04:10:02.773Z,37.73
2018-01-27T04:12:30.275Z,33.90
2018-01-27T04:14:57.809Z,32.93
2018-01-27T04:17:25.322Z,33.00
2018-01-27T04:19:53.598Z,35.40
2018-01-27T04:22:21.909Z,30.23
2018-01-27T04:24:49.445Z,29.17
2018-01-27T04:27:16.980Z,33.37
2018-01-27T04:29:44.478Z,33.77
2018-01-27T04:32:12.007Z,34.07
2018-01-27T04:34:40.305Z,31.63
2018-01-27T04:37:07.840Z,37.47
2018-01-27T04:39:36.131Z,34.53
2018-01-27T04:42:03.659Z,30.23
2018-01-27T04:44:31.194Z,30.60
2018-01-27T04:46:58.754Z,31.30
2018-01-27T04:49:26.284Z,30.00
2018-01-27T04:51:53.778Z,28.73
2018-01-27T04:54:21.308Z,30.60
2018-01-27T04:56:48.807Z,31.13
2018-01-27T04:59:16.346Z,30.02
2018-01-27T05:01:43.841Z,33.23
2018-01-27T05:04:12.156Z,32.97
2018-01-27T05:06:39.728Z,29.37
2018-01-27T05:09:07.274Z,30.07
2018-01-27T05:11:34.807Z,29.87
2018-01-27T05:14:03.081Z,28.33
2018-01-27T05:16:31.372Z,38.37
2018-01-27T05:18:58.897Z,40.20
2018-01-27T05:21:26.404Z,47.30
2018-01-27T05:23:53.923Z,46.97
2018-01-27T05:26:22.206Z,48.67
2018-01-27T05:28:50.490Z,47.70
2018-01-27T05:31:18.790Z,46.33
2018-01-27T05:33:46.293Z,44.77
2018-01-27T05:36:13.823Z,46.40
2018-01-27T05:38:42.110Z,52.70
2018-01-27T05:41:09.613Z,54.47
2018-01-27T05:43:37.921Z,48.57
2018-01-27T05:46:05.427Z,48.23
2018-01-27T05:48:32.980Z,55.37
2018-01-27T05:51:00.496Z,54.60
2018-01-27T05:53:28.006Z,50.13
2018-01-27T05:55:55.533Z,52.50
2018-01-27T05:58:23.060Z,54.08
2018-01-27T06:00:50.594Z,57.05
2018-01-27T06:03:18.891Z,53.33
2018-01-27T06:05:46.445Z,54.25
2018-01-27T06:08:13.975Z,58.55
2018-01-27T06:10:41.492Z,57.83
2018-01-27T06:13:09.032Z,63.00
2018-01-27T06:15:36.539Z,61.20
2018-01-27T06:18:04.078Z,57.80
2018-01-27T06:20:31.587Z,70.10
2018-01-27T06:22:59.092Z,58.67
2018-01-27T06:25:26.639Z,65.22
2018-01-27T06:27:54.152Z,62.95
2018-01-27T06:30:22.449Z,67.85
2018-01-27T06:32:49.976Z,57.50
2018-01-27T06:35:18.277Z,60.40
2018-01-27T06:37:45.843Z,64.00
2018-01-27T06:40:13.368Z,59.33
2018-01-27T06:42:40.935Z,57.53
2018-01-27T06:45:09.216Z,59.83
2018-01-27T06:47:37.493Z,57.42
2018-01-27T06:50:05.802Z,59.37
2018-01-27T06:52:33.342Z,53.10
2018-01-27T06:55:00.876Z,61.35
2018-01-27T06:57:29.165Z,63.17
2018-01-27T06:59:57.472Z,57.20
2018-01-27T07:02:25.794Z,65.57
2018-01-27T07:04:53.299Z,68.97
2018-01-27T07:07:20.842Z,59.63
2018-01-27T07:09:49.162Z,62.85
2018-01-27T07:12:16.681Z,52.95
2018-01-27T07:14:45.003Z,66.32
2018-01-27T07:17:12.536Z,71.62
2018-01-27T07:19:40.057Z,68.18
2018-01-27T07:22:08.354Z,66.43
2018-01-27T07:24:36.661Z,76.68
2018-01-27T07:27:04.191Z,58.95
2018-01-27T07:29:31.716Z,64.15
2018-01-27T07:31:59.239Z,65.37
2018-01-27T07:34:26.765Z,67.07
2018-01-27T07:36:55.087Z,60.57
2018-01-27T07:39:22.612Z,70.85
2018-01-27T07:41:50.167Z,68.45
2018-01-27T07:44:17.686Z,64.90
2018-01-27T07:46:45.227Z,72.78
2018-01-27T07:49:12.734Z,66.13
2018-01-27T07:51:40.271Z,59.42
2018-01-27T07:54:07.828Z,62.70
2018-01-27T07:56:35.340Z,76.77
2018-01-27T07:59:02.859Z,67.22
2018-01-27T08:01:31.181Z,57.05
2018-01-27T08:03:58.718Z,62.75
2018-01-27T08:06:26.227Z,65.53
2018-01-27T08:08:53.787Z,83.07
2018-01-27T08:11:21.291Z,72.50
2018-01-27T08:13:48.815Z,77.83
2018-01-27T08:16:16.336Z,74.78
2018-01-27T08:18:43.855Z,67.43
2018-01-27T08:21:12.142Z,71.30
2018-01-27T08:23:39.696Z,73.07
2018-01-27T08:26:07.988Z,73.13
2018-01-27T08:28:35.524Z,69.00
2018-01-27T08:31:03.804Z,60.97
2018-01-27T08:33:32.119Z,61.50
2018-01-27T08:35:59.644Z,61.25
2018-01-27T08:38:27.295Z,56.83
2018-01-27T08:40:55.589Z,54.40
2018-01-27T08:43:23.113Z,58.70
2018-01-27T08:45:50.664Z,51.53
2018-01-27T08:48:18.201Z,59.00
2018-01-27T08:50:45.705Z,52.10
2018-01-27T08:53:14.018Z,51.23
2018-01-27T08:55:42.388Z,50.83
2018-01-27T08:58:09.906Z,56.13
2018-01-27T09:00:37.443Z,57.25
2018-01-27T09:03:04.986Z,56.93
2018-01-27T09:05:32.520Z,69.43
2018-01-27T09:08:00.081Z,55.27
2018-01-27T09:10:27.596Z,54.80
2018-01-27T09:12:55.155Z,58.63
2018-01-27T09:18:10.709Z,55.40
2018-01-27T09:20:38.232Z,54.63
2018-01-27T09:23:06.523Z,46.90
2018-01-27T09:25:34.049Z,60.23
2018-01-27T09:28:02.378Z,55.27
2018-01-27T09:30:29.910Z,58.37
2018-01-27T09:32:58.267Z,55.72
2018-01-27T09:35:25.799Z,62.00
2018-01-27T09:37:53.351Z,63.75
2018-01-27T09:40:20.888Z,76.87
2018-01-27T09:42:48.425Z,64.72
2018-01-27T09:45:15.981Z,71.47
2018-01-27T09:47:43.507Z,59.33
2018-01-27T09:50:11.033Z,56.37
2018-01-27T09:52:38.547Z,59.63
2018-01-27T09:55:06.118Z,54.30
2018-01-27T09:57:34.459Z,54.00
2018-01-27T10:00:02.018Z,62.40
2018-01-27T10:02:30.234Z,52.13
2018-01-27T10:04:57.774Z,58.00
2018-01-27T10:07:26.084Z,62.97
2018-01-27T10:09:53.633Z,62.73
2018-01-27T10:12:21.154Z,53.50
2018-01-27T10:14:48.735Z,57.73
2018-01-27T10:17:17.040Z,51.00
2018-01-27T10:19:44.561Z,51.03
2018-01-27T10:22:12.860Z,48.60
2018-01-27T10:24:40.411Z,41.67
2018-01-27T10:27:08.710Z,45.27
2018-01-27T10:29:36.276Z,40.63
2018-01-27T10:32:03.834Z,47.47
2018-01-27T10:34:31.393Z,45.03
2018-01-27T10:36:58.939Z,39.73
2018-01-27T10:39:26.483Z,35.07
2018-01-27T10:41:54.805Z,41.47
2018-01-27T10:44:25.156Z,42.83
2018-01-27T10:46:52.641Z,43.50
2018-01-27T10:49:20.971Z,36.70
2018-01-27T10:51:48.504Z,37.17
2018-01-27T10:54:16.065Z,37.93
2018-01-27T10:56:44.436Z,40.90
2018-01-27T10:59:11.983Z,42.10
2018-01-27T11:01:39.482Z,40.40
2018-01-27T11:04:08.644Z,41.13
2018-01-27T11:06:36.180Z,40.27
2018-01-27T11:09:04.468Z,43.03
2018-01-27T11:11:32.059Z,40.77
2018-01-27T11:14:00.366Z,41.60
2018-01-27T11:16:33.503Z,35.40
2018-01-27T11:19:01.066Z,34.00
2018-01-27T11:21:28.595Z,37.80
2018-01-27T11:23:56.887Z,38.23
2018-01-27T11:26:25.163Z,34.00
2018-01-27T11:28:53.494Z,33.07
2018-01-27T11:31:21.032Z,36.17
2018-01-27T11:33:48.562Z,36.40
2018-01-27T11:36:16.065Z,39.53
2018-01-27T11:38:43.601Z,38.93
2018-01-27T11:41:11.102Z,35.63
2018-01-27T11:43:38.634Z,38.00
2018-01-27T11:46:06.165Z,36.13
2018-01-27T11:48:33.719Z,37.27
2018-01-27T11:51:01.241Z,40.17
2018-01-27T11:53:28.785Z,37.97
2018-01-27T11:55:56.292Z,40.13
2018-01-27T11:58:24.592Z,37.87
2018-01-27T12:00:52.103Z,34.13
2018-01-27T12:03:19.636Z,39.40
2018-01-27T12:05:47.167Z,38.60
2018-01-27T12:08:14.675Z,38.33
2018-01-27T12:10:42.237Z,36.20
2018-01-27T12:13:09.784Z,39.60
2018-01-27T12:15:37.295Z,42.77
2018-01-27T12:18:04.826Z,37.07
2018-01-27T12:20:33.124Z,40.73
2018-01-27T12:23:00.671Z,38.57
2018-01-27T12:25:28.961Z,41.77
2018-01-27T12:27:56.482Z,41.60
2018-01-27T12:30:24.007Z,41.10
2018-01-27T12:32:51.663Z,43.73
2018-01-27T12:35:19.174Z,40.87
2018-01-27T12:37:47.450Z,38.53
2018-01-27T12:40:15.749Z,40.23
2018-01-27T12:42:43.263Z,42.97
2018-01-27T12:45:10.802Z,43.13
2018-01-27T12:47:38.343Z,41.03
2018-01-27T12:50:05.973Z,38.63
2018-01-27T12:52:33.521Z,38.63
2018-01-27T12:55:01.813Z,43.00
2018-01-27T12:57:29.345Z,38.20
2018-01-27T12:59:56.850Z,38.90
2018-01-27T13:02:25.186Z,39.37
2018-01-27T13:04:53.510Z,34.33
2018-01-27T13:07:20.999Z,35.20
2018-01-27T13:09:48.534Z,36.80
2018-01-27T13:12:16.085Z,36.50
2018-01-27T13:14:43.624Z,38.35
2018-01-27T13:17:11.136Z,40.73
2018-01-27T13:19:38.682Z,38.07
2018-01-27T13:22:06.193Z,42.63
2018-01-27T13:24:34.538Z,40.57
2018-01-27T13:27:02.093Z,37.00
2018-01-27T13:29:29.623Z,34.63
2018-01-27T13:31:57.168Z,39.47
2018-01-27T13:34:24.687Z,35.80
2018-01-27T13:36:53.022Z,38.10
2018-01-27T13:39:20.526Z,44.50
2018-01-27T13:41:48.845Z,47.50
2018-01-27T13:44:16.350Z,46.00
2018-01-27T13:46:43.900Z,43.37
2018-01-27T13:49:11.406Z,45.65
2018-01-27T13:51:38.949Z,40.30
2018-01-27T13:54:06.554Z,48.53
2018-01-27T13:56:34.088Z,44.72
2018-01-27T13:59:01.616Z,41.73
2018-01-27T14:01:29.942Z,47.78
2018-01-27T14:03:57.466Z,39.63
2018-01-27T14:06:25.036Z,41.10
2018-01-27T14:08:52.576Z,34.95
2018-01-27T14:11:20.858Z,35.70
2018-01-27T14:13:48.411Z,32.60
2018-01-27T14:16:15.962Z,33.15
2018-01-27T14:18:44.261Z,38.80
2018-01-27T14:21:11.772Z,35.95
2018-01-27T14:23:39.305Z,41.00
2018-01-27T14:26:06.859Z,41.63
2018-01-27T14:28:34.383Z,40.47
2018-01-27T14:31:02.700Z,39.60
2018-01-27T14:33:30.262Z,37.73
2018-01-27T14:35:57.825Z,35.67
2018-01-27T14:38:25.330Z,33.87
2018-01-27T14:40:52.849Z,36.03
2018-01-27T14:43:20.399Z,37.97
2018-01-27T14:45:47.920Z,32.50
2018-01-27T14:48:16.216Z,34.80
2018-01-27T14:50:43.752Z,35.50
2018-01-27T14:53:12.086Z,31.87
2018-01-27T14:55:39.621Z,33.17
2018-01-27T14:58:07.131Z,35.93
2018-01-27T15:00:34.665Z,36.37
2018-01-27T15:03:02.176Z,35.67
2018-01-27T15:05:29.707Z,39.50
2018-01-27T15:07:58.000Z,38.13
2018-01-27T15:10:26.281Z,38.90
2018-01-27T15:12:53.817Z,40.10
2018-01-27T15:15:22.145Z,46.05
2018-01-27T15:17:49.651Z,41.63
2018-01-27T15:20:17.216Z,38.30
2018-01-27T15:22:44.731Z,41.07
2018-01-27T15:25:12.230Z,40.83
2018-01-27T15:27:39.787Z,43.40
2018-01-27T15:30:07.351Z,40.60
2018-01-27T15:32:34.892Z,35.97
2018-01-27T15:35:02.468Z,37.87
2018-01-27T15:37:29.977Z,39.80
2018-01-27T15:39:57.510Z,38.87
2018-01-27T15:42:25.078Z,38.43
2018-01-27T15:44:52.946Z,34.22
2018-01-27T15:47:20.561Z,35.27
2018-01-27T15:49:48.092Z,37.53
2018-01-27T15:52:15.621Z,39.67
2018-01-27T15:54:43.184Z,38.97
2018-01-27T15:57:10.718Z,37.80
2018-01-27T15:59:39.048Z,44.83
2018-01-27T16:02:06.575Z,44.40
2018-01-27T16:04:34.585Z,45.38
2018-01-27T16:07:02.201Z,42.80
2018-01-27T16:09:29.747Z,45.23
2018-01-27T16:11:58.049Z,49.17
2018-01-27T16:14:25.568Z,46.27
2018-01-27T16:16:53.132Z,44.83
2018-01-27T16:19:21.420Z,44.92
2018-01-27T16:21:49.715Z,54.15
2018-01-27T16:24:17.249Z,50.70
2018-01-27T16:26:45.554Z,53.60
2018-01-27T16:29:13.083Z,56.33
2018-01-27T16:31:41.814Z,53.42
2018-01-27T16:34:09.356Z,61.30
2018-01-27T16:36:36.892Z,47.70
2018-01-27T16:39:05.809Z,49.72
2018-01-27T16:41:33.369Z,41.88
2018-01-27T16:44:00.887Z,45.10
2018-01-27T16:46:28.409Z,49.78
2018-01-27T16:48:55.965Z,43.85
2018-01-27T16:51:23.530Z,49.90
2018-01-27T16:53:51.090Z,48.10
2018-01-27T16:56:18.648Z,49.10
2018-01-27T16:58:46.205Z,46.13
2018-01-27T17:01:13.754Z,43.25
2018-01-27T17:03:41.286Z,40.35
2018-01-27T17:06:08.822Z,41.22
2018-01-27T17:08:37.223Z,40.83
2018-01-27T17:11:04.746Z,42.47
2018-01-27T17:13:32.299Z,47.35
2018-01-27T17:15:59.843Z,49.67
2018-01-27T17:18:27.557Z,45.28
2018-01-27T17:20:55.133Z,52.03
2018-01-27T17:23:22.686Z,50.10
2018-01-27T17:25:50.245Z,46.60
2018-01-27T17:28:17.756Z,51.00
2018-01-27T17:30:45.304Z,48.17
2018-01-27T17:33:12.814Z,45.37
2018-01-27T17:35:40.346Z,47.60
2018-01-27T17:38:07.883Z,54.10
2018-01-27T17:40:35.455Z,47.00
2018-01-27T17:43:02.985Z,46.40
2018-01-27T17:45:30.559Z,72.30
2018-01-27T17:47:58.098Z,57.47
2018-01-27T17:50:25.625Z,52.30
2018-01-27T17:52:53.195Z,52.63
2018-01-27T17:55:20.745Z,76.23
2018-01-27T17:57:49.029Z,59.10
2018-01-27T18:00:16.573Z,59.20
2018-01-27T18:02:44.882Z,53.92
2018-01-27T18:05:12.415Z,53.33
2018-01-27T18:07:39.939Z,52.70
2018-01-27T18:10:07.572Z,57.37
2018-01-27T18:12:35.147Z,53.93
2018-01-27T18:15:02.732Z,58.90
2018-01-27T18:17:30.275Z,65.30
2018-01-27T18:19:58.036Z,54.42
2018-01-27T18:22:25.583Z,56.70
2018-01-27T18:24:53.152Z,62.40
2018-01-27T18:27:20.684Z,52.57
2018-01-27T18:29:48.271Z,59.47
2018-01-27T18:32:15.820Z,53.72
2018-01-27T18:34:43.361Z,65.00
2018-01-27T18:37:10.900Z,58.72
2018-01-27T18:39:38.491Z,55.03
2018-01-27T18:42:06.028Z,62.78
2018-01-27T18:44:33.582Z,62.50
2018-01-27T18:47:01.165Z,61.22
2018-01-27T18:49:28.863Z,56.73
2018-01-27T18:51:56.453Z,62.47
2018-01-27T18:54:24.149Z,67.40
2018-01-27T18:56:51.862Z,53.83
2018-01-27T18:59:19.452Z,62.03
2018-01-27T19:01:46.998Z,55.20
2018-01-27T19:04:14.569Z,55.33
2018-01-27T19:06:42.227Z,67.93
2018-01-27T19:09:09.950Z,60.30
2018-01-27T19:11:38.363Z,61.88
2018-01-27T19:14:06.168Z,65.65
2018-01-27T19:16:33.737Z,64.15
2018-01-27T19:19:01.488Z,67.10
2018-01-27T19:21:29.175Z,71.55
2018-01-27T19:23:56.765Z,56.83
2018-01-27T19:26:25.616Z,56.20
2018-01-27T19:28:53.321Z,52.80
2018-01-27T19:31:20.968Z,51.15
2018-01-27T19:33:49.376Z,52.42
2018-01-27T19:36:16.921Z,60.85
2018-01-27T19:38:45.066Z,67.15
2018-01-27T19:41:12.631Z,57.20
2018-01-27T19:43:40.274Z,51.60
2018-01-27T19:46:07.872Z,61.35
2018-01-27T19:48:36.220Z,61.08
2018-01-27T19:51:04.033Z,67.20
2018-01-27T19:53:32.204Z,63.22
2018-01-27T19:56:01.209Z,63.72
2018-01-27T19:58:28.847Z,75.75
2018-01-27T20:00:57.302Z,79.05
2018-01-27T20:03:25.097Z,72.22
2018-01-27T20:05:52.652Z,73.05
2018-01-27T20:08:21.349Z,76.70
2018-01-27T20:10:49.488Z,79.35
2018-01-27T20:13:17.211Z,75.78
2018-01-27T20:15:44.775Z,96.68
2018-01-27T20:18:12.496Z,108.82
2018-01-27T20:20:41.733Z,116.32
2018-01-27T20:23:10.262Z,111.78
2018-01-27T20:25:38.277Z,110.07
2018-01-27T20:28:05.908Z,108.72
2018-01-27T20:30:34.300Z,115.45
2018-01-27T20:33:02.126Z,96.95
2018-01-27T20:35:30.735Z,97.45
2018-01-27T20:37:58.919Z,147.43
2018-01-27T20:40:26.589Z,82.12
2018-01-27T20:42:54.099Z,82.37
2018-01-27T20:45:22.852Z,83.28
2018-01-27T20:47:51.271Z,84.72
2018-01-27T20:50:19.528Z,82.97
2018-01-27T20:52:47.204Z,91.12
2018-01-27T20:55:14.782Z,85.75
2018-01-27T20:57:43.373Z,96.95
2018-01-27T21:00:12.342Z,102.10
2018-01-27T21:02:40.618Z,93.00
2018-01-27T21:05:08.522Z,108.28
2018-01-27T21:07:36.107Z,97.47
2018-01-27T21:10:03.924Z,93.97
2018-01-27T21:12:32.928Z,103.55
2018-01-27T21:15:01.960Z,100.38
2018-01-27T21:17:30.285Z,98.97
2018-01-27T21:19:57.972Z,98.70
2018-01-27T21:22:26.326Z,96.07
2018-01-27T21:24:54.005Z,115.20
2018-01-27T21:27:22.807Z,114.62
2018-01-27T21:29:50.960Z,122.97
2018-01-27T21:32:19.493Z,142.27
2018-01-27T21:34:47.052Z,112.37
2018-01-27T21:37:15.534Z,113.90
2018-01-27T21:39:44.407Z,93.20
2018-01-27T21:42:12.518Z,113.03
2018-01-27T21:44:40.508Z,102.93
2018-01-27T21:47:08.124Z,114.32
2018-01-27T21:49:35.959Z,103.53
2018-01-27T21:52:04.279Z,92.90
2018-01-27T21:54:31.848Z,107.12
2018-01-27T21:56:59.614Z,107.07
2018-01-27T21:59:27.203Z,112.72
2018-01-27T22:01:55.483Z,93.60
2018-01-27T22:04:23.806Z,102.40
2018-01-27T22:06:51.403Z,118.68
2018-01-27T22:09:18.913Z,97.73
2018-01-27T22:11:46.438Z,98.03
2018-01-27T22:14:14.759Z,106.68
2018-01-27T22:16:42.272Z,94.68
2018-01-27T22:19:10.587Z,93.40
2018-01-27T22:21:38.117Z,101.62
2018-01-27T22:24:05.663Z,113.40
2018-01-27T22:26:34.004Z,95.28
2018-01-27T22:29:01.533Z,113.78
2018-01-27T22:31:29.067Z,108.50
2018-01-27T22:33:57.368Z,120.78
2018-01-27T22:36:24.912Z,122.28
2018-01-27T22:38:53.205Z,120.30
2018-01-27T22:41:20.757Z,105.78
2018-01-27T22:43:48.304Z,118.22
2018-01-27T22:46:16.608Z,111.75
2018-01-27T22:48:44.181Z,116.55
2018-01-27T22:51:11.702Z,110.07
2018-01-27T22:53:39.986Z,111.65
2018-01-27T22:56:07.530Z,113.75
2018-01-27T22:58:35.811Z,111.05
2018-01-27T23:01:09.822Z,108.60
2018-01-27T23:03:38.143Z,109.10
2018-01-27T23:06:05.658Z,106.57
2018-01-27T23:08:33.220Z,120.57
2018-01-27T23:11:01.532Z,104.45
2018-01-27T23:13:29.058Z,116.37
2018-01-27T23:15:57.373Z,119.72
2018-01-27T23:18:24.928Z,117.35
2018-01-27T23:20:52.449Z,112.90
2018-01-27T23:23:20.847Z,128.07
2018-01-27T23:25:48.363Z,108.75
2018-01-27T23:28:15.896Z,118.78
2018-01-27T23:30:43.452Z,120.78
2018-01-27T23:33:10.950Z,119.40
2018-01-27T23:35:39.273Z,127.20
2018-01-27T23:38:06.797Z,124.28
2018-01-27T23:40:34.326Z,131.63
2018-01-27T23:43:01.905Z,133.98
2018-01-27T23:45:30.224Z,154.12
2018-01-27T23:47:57.743Z,128.52
2018-01-27T23:50:26.106Z,126.20
2018-01-27T23:52:53.636Z,119.68
2018-01-27T23:55:21.156Z,119.50
2018-01-27T23:57:48.710Z,116.72
